Time;durP1;ratioP1;P1;durP2;ratioP2;P2;SDS_P1;SDS_P2;PMS_P1;PMS_P2;Temp;Humidity;BMP_temperature;BMP_pressure;BME280_temperature;BME280_humidity;BME280_pressure;Samples;Min_cycle;Max_cycle;Signal;HPM_P1;HPM_P2
2020/12/09 00:00:09;;;;;;;31.42;12.23;;;;;;;-5.72;69.21;100112.73;1609515;87;21188;-65
2020/12/09 00:02:39;;;;;;;;;;;;;;;-5.75;69.02;100091.96;1599173;87;21229;-65
2020/12/09 00:05:11;;;;;;;31.23;13.32;;;;;;;-5.74;69.16;100102.52;1631014;87;20179;-65
2020/12/09 00:07:39;;;;;;;30.90;13.03;;;;;;;-5.74;69.11;100094.97;1642403;87;21316;-66
2020/12/09 00:10:07;;;;;;;23.20;9.85;;;;;;;-5.73;68.93;100088.31;1644508;87;21181;-66
2020/12/09 00:12:36;;;;;;;26.73;11.43;;;;;;;-5.76;68.86;100084.27;1634270;86;21562;-66
2020/12/09 00:15:07;;;;;;;31.97;12.70;;;;;;;-5.81;68.98;100083.83;1640767;87;21588;-66
2020/12/09 00:17:35;;;;;;;30.93;12.37;;;;;;;-5.81;68.87;100087.98;1640287;86;21163;-66
2020/12/09 00:20:05;;;;;;;26.25;12.40;;;;;;;-5.81;68.66;100091.75;1641483;87;21316;-66
2020/12/09 00:22:35;;;;;;;27.93;12.90;;;;;;;-5.81;68.69;100086.34;1635371;87;21203;-68
2020/12/09 00:25:04;;;;;;;25.60;12.13;;;;;;;-5.81;68.76;100091.75;1627554;87;21215;-66
2020/12/09 00:27:35;;;;;;;27.70;13.10;;;;;;;-5.81;68.55;100102.69;1630775;87;21200;-66
2020/12/09 00:30:07;;;;;;;25.08;11.15;;;;;;;-5.80;68.53;100094.77;1643739;86;21168;-66
2020/12/09 00:32:36;;;;;;;23.27;11.43;;;;;;;-5.78;68.58;100099.57;1639492;86;21323;-66
2020/12/09 00:35:08;;;;;;;26.40;11.63;;;;;;;-5.79;68.29;100098.69;1627884;87;21205;-66
2020/12/09 00:37:36;;;;;;;26.37;11.28;;;;;;;-5.74;68.32;100105.41;1629876;87;21388;-66
2020/12/09 00:40:05;;;;;;;28.60;12.80;;;;;;;-5.68;68.05;100106.84;1639664;87;21262;-66
2020/12/09 00:42:34;;;;;;;24.25;11.73;;;;;;;-5.62;68.00;100104.04;1647322;87;21190;-67
2020/12/09 00:45:02;;;;;;;25.62;10.98;;;;;;;-5.60;67.89;100091.20;1633542;86;21184;-67
2020/12/09 00:47:30;;;;;;;23.40;10.65;;;;;;;-5.54;67.48;100089.28;1643812;87;21366;-66
2020/12/09 00:49:58;;;;;;;23.10;10.48;;;;;;;-5.53;67.42;100077.58;1641860;86;21327;-66
2020/12/09 00:52:26;;;;;;;30.17;12.82;;;;;;;-5.53;67.33;100080.98;1647710;86;21209;-66
2020/12/09 00:54:55;;;;;;;26.68;11.85;;;;;;;-5.51;67.30;100084.91;1645131;87;21188;-66
2020/12/09 00:57:23;;;;;;;21.07;10.38;;;;;;;-5.49;67.33;100080.91;1641648;86;21197;-66
2020/12/09 00:59:51;;;;;;;27.07;11.35;;;;;;;-5.49;67.17;100071.72;1635714;86;21216;-65
2020/12/09 01:02:21;;;;;;;24.63;11.63;;;;;;;-5.46;67.12;100077.03;1632574;85;21385;-66
2020/12/09 01:04:50;;;;;;;23.75;11.08;;;;;;;-5.39;66.64;100088.89;1660752;85;21157;-67
2020/12/09 01:07:19;;;;;;;28.10;12.75;;;;;;;-5.38;66.69;100071.44;1668188;84;21616;-66
2020/12/09 01:09:49;;;;;;;24.02;12.50;;;;;;;-5.42;66.83;100062.21;1663251;86;21201;-67
2020/12/09 01:12:17;;;;;;;25.85;12.00;;;;;;;-5.42;66.90;100064.73;1655218;85;21161;-66
2020/12/09 01:14:44;;;;;;;27.37;12.25;;;;;;;-5.41;66.84;100060.23;1660810;84;21173;-67
2020/12/09 01:17:12;;;;;;;31.17;11.40;;;;;;;-5.43;66.62;100056.68;1659604;86;21269;-66
2020/12/09 01:19:41;;;;;;;24.02;12.18;;;;;;;-5.46;66.62;100064.83;1663214;85;21299;-66
2020/12/09 01:22:09;;;;;;;22.40;10.03;;;;;;;-5.41;66.66;100057.71;1655436;85;21161;-65
2020/12/09 01:24:36;;;;;;;26.30;11.90;;;;;;;-5.39;66.47;100060.87;1657965;84;21161;-66
2020/12/09 01:27:04;;;;;;;24.65;11.53;;;;;;;-5.41;66.45;100050.16;1662004;84;21153;-66
2020/12/09 01:29:32;;;;;;;23.57;11.22;;;;;;;-5.41;66.53;100056.45;1674754;85;21172;-66
2020/12/09 01:32:03;;;;;;;26.37;10.63;;;;;;;-5.45;66.42;100051.50;1660439;85;21173;-66
2020/12/09 01:34:30;;;;;;;26.70;12.25;;;;;;;-5.48;66.53;100053.36;1648728;84;21193;-66
2020/12/09 01:37:00;;;;;;;24.60;12.40;;;;;;;-5.50;66.75;100053.97;1663628;85;21227;-67
2020/12/09 01:39:27;;;;;;;24.70;10.63;;;;;;;-5.48;66.77;100055.88;1655544;86;21268;-66
2020/12/09 01:41:57;;;;;;;27.05;12.25;;;;;;;-5.41;66.84;100052.68;1663093;85;21288;-65
2020/12/09 01:44:24;;;;;;;23.62;11.88;;;;;;;-5.40;66.73;100065.76;1668726;85;21145;-66
2020/12/09 01:46:56;;;;;;;27.07;12.47;;;;;;;-5.40;66.91;100053.18;1656350;85;21137;-66
2020/12/09 01:49:24;;;;;;;25.05;11.48;;;;;;;-5.41;66.96;100062.74;1665472;85;21308;-68
2020/12/09 01:51:51;;;;;;;24.52;12.05;;;;;;;-5.39;67.02;100056.20;1654312;85;21239;-66
2020/12/09 01:54:19;;;;;;;24.85;12.55;;;;;;;-5.38;67.05;100052.95;1668942;84;21343;-66
2020/12/09 01:57:10;;;;;;;23.05;9.65;;;;;;;-5.35;67.02;100060.77;1658436;85;21185;-66
2020/12/09 01:59:40;;;;;;;23.85;10.88;;;;;;;-5.29;67.04;100052.16;1638977;87;21173;-66
2020/12/09 02:02:08;;;;;;;27.25;12.25;;;;;;;-5.30;67.03;100059.17;1612334;87;21333;-65
2020/12/09 02:04:37;;;;;;;26.17;13.30;;;;;;;-5.31;67.25;100059.06;1629154;86;21324;-66
2020/12/09 02:07:05;;;;;;;22.00;11.38;;;;;;;-5.30;67.33;100059.56;1637277;86;21177;-68
2020/12/09 02:09:33;;;;;;;26.85;12.53;;;;;;;-5.29;67.38;100065.09;1615077;87;21326;-67
2020/12/09 02:12:01;;;;;;;23.50;11.88;;;;;;;-5.27;67.42;100058.19;1628814;87;21391;-66
2020/12/09 02:14:30;;;;;;;22.75;11.03;;;;;;;-5.22;67.36;100064.91;1639040;86;21194;-66
2020/12/09 02:16:59;;;;;;;21.85;10.72;;;;;;;-5.27;67.59;100056.05;1627370;86;21578;-68
2020/12/09 02:19:27;;;;;;;31.85;12.37;;;;;;;-5.27;67.76;100067.00;1630858;86;21184;-66
2020/12/09 02:21:57;;;;;;;18.35;9.13;;;;;;;-5.23;67.69;100066.92;1632189;86;21184;-66
2020/12/09 02:24:26;;;;;;;25.55;10.70;;;;;;;-5.24;67.72;100068.55;1612280;87;21295;-66
2020/12/09 02:26:53;;;;;;;26.68;12.18;;;;;;;-5.30;67.98;100080.94;1663331;85;21133;-66
2020/12/09 02:29:22;;;;;;;34.15;13.00;;;;;;;-5.33;68.17;100063.06;1655933;85;21287;-66
2020/12/09 02:31:49;;;;;;;41.33;14.43;;;;;;;-5.32;68.27;100053.49;1672103;84;21169;-66
2020/12/09 02:34:17;;;;;;;33.98;14.23;;;;;;;-5.35;68.54;100056.62;1660488;85;21522;-66
2020/12/09 02:36:45;;;;;;;35.10;14.00;;;;;;;-5.34;68.55;100068.81;1663385;85;21231;-65
2020/12/09 02:39:13;;;;;;;24.75;11.63;;;;;;;-5.27;68.53;100068.25;1666761;85;21711;-67
2020/12/09 02:41:40;;;;;;;33.00;11.68;;;;;;;-5.21;68.40;100053.23;1672086;85;21315;-66
2020/12/09 02:44:08;;;;;;;35.78;13.80;;;;;;;-5.20;68.46;100050.83;1667546;84;21170;-66
2020/12/09 02:46:36;;;;;;;30.62;11.25;;;;;;;-5.18;68.51;100046.83;1660158;85;21288;-66
2020/12/09 02:49:03;;;;;;;29.60;12.03;;;;;;;-5.11;68.41;100056.70;1666591;85;21145;-66
2020/12/09 02:51:31;;;;;;;26.85;11.28;;;;;;;-5.07;68.26;100061.25;1662561;85;21343;-65
2020/12/09 02:53:59;;;;;;;27.75;13.28;;;;;;;-5.05;68.22;100059.76;1651859;86;21177;-65
2020/12/09 02:56:26;;;;;;;27.48;11.83;;;;;;;-5.08;68.29;100065.78;1667014;84;21168;-66
2020/12/09 02:58:54;;;;;;;22.87;11.18;;;;;;;-5.05;68.38;100076.12;1660706;85;21584;-66
2020/12/09 03:01:22;;;;;;;26.95;11.60;;;;;;;-5.07;68.43;100076.34;1667157;85;21586;-66
2020/12/09 03:03:50;;;;;;;30.85;11.48;;;;;;;-5.05;68.61;100073.60;1658248;84;21177;-66
2020/12/09 03:06:17;;;;;;;23.10;12.03;;;;;;;-5.03;68.53;100078.41;1675298;84;21176;-66
2020/12/09 03:08:46;;;;;;;26.97;12.58;;;;;;;-5.03;68.56;100078.41;1656661;85;21643;-66
2020/12/09 03:11:13;;;;;;;25.35;11.10;;;;;;;-5.07;68.76;100076.34;1665632;85;21196;-66
2020/12/09 03:13:41;;;;;;;27.90;11.43;;;;;;;-5.09;68.91;100076.61;1651540;85;21154;-66
2020/12/09 03:16:09;;;;;;;25.50;11.30;;;;;;;-5.07;69.11;100090.57;1679679;84;21398;-65
2020/12/09 03:18:36;;;;;;;21.95;11.10;;;;;;;-5.06;69.12;100080.66;1663665;85;21173;-66
2020/12/09 03:21:07;;;;;;;27.27;12.53;;;;;;;-5.05;69.23;100087.45;1657060;85;21291;-66
2020/12/09 03:23:36;;;;;;;27.42;13.35;;;;;;;-5.06;69.31;100076.88;1669678;85;21324;-65
2020/12/09 03:26:05;;;;;;;22.65;10.35;;;;;;;-5.05;69.46;100072.72;1655711;85;21569;-65
2020/12/09 03:28:35;;;;;;;27.17;12.98;;;;;;;-5.02;69.66;100071.36;1660811;85;21133;-65
2020/12/09 03:31:06;;;;;;;25.40;12.03;;;;;;;-4.96;69.60;100067.62;1654489;86;21144;-66
2020/12/09 03:33:34;;;;;;;25.80;11.65;;;;;;;-4.96;69.54;100071.05;1653424;85;21374;-66
2020/12/09 03:36:03;;;;;;;24.27;11.22;;;;;;;-4.95;69.56;100071.55;1652607;86;21185;-66
2020/12/09 03:38:31;;;;;;;25.50;9.70;;;;;;;-4.94;69.69;100071.16;1669586;84;21391;-65
2020/12/09 03:40:59;;;;;;;21.52;10.82;;;;;;;-4.96;69.81;100069.78;1676449;84;21295;-66
2020/12/09 03:43:26;;;;;;;27.75;10.68;;;;;;;-4.97;70.07;100066.73;1667925;85;21141;-65
2020/12/09 03:45:54;;;;;;;23.00;10.23;;;;;;;-4.95;70.16;100063.99;1662695;84;21209;-66
2020/12/09 03:48:22;;;;;;;25.80;12.63;;;;;;;-4.94;70.19;100058.20;1674344;85;21308;-65
2020/12/09 03:50:49;;;;;;;24.92;11.18;;;;;;;-4.97;70.45;100057.93;1656707;86;21323;-65
2020/12/09 03:53:20;;;;;;;23.40;10.10;;;;;;;-4.98;70.60;100061.59;1666264;85;21177;-66
2020/12/09 03:55:49;;;;;;;32.30;11.35;;;;;;;-5.00;70.84;100054.27;1654155;85;21149;-66
2020/12/09 03:58:17;;;;;;;23.47;10.38;;;;;;;-4.94;70.87;100057.31;1656551;86;21165;-66
2020/12/09 04:00:45;;;;;;;23.18;9.13;;;;;;;-4.93;70.96;100059.98;1657191;85;21394;-67
2020/12/09 04:03:12;;;;;;;30.27;12.15;;;;;;;-4.91;70.96;100043.39;1654801;86;21306;-66
2020/12/09 04:05:40;;;;;;;23.65;11.20;;;;;;;-4.88;71.06;100047.44;1640075;86;21237;-66
2020/12/09 04:08:07;;;;;;;22.02;10.88;;;;;;;-4.86;71.20;100053.84;1624737;87;21177;-65
2020/12/09 04:10:35;;;;;;;21.97;10.70;;;;;;;-4.82;71.23;100045.83;1636412;87;21158;-65
2020/12/09 04:13:03;;;;;;;28.25;11.53;;;;;;;-4.75;71.21;100039.33;1627807;87;21292;-65
2020/12/09 04:15:30;;;;;;;25.43;11.73;;;;;;;-4.71;71.04;100047.64;1636415;87;21210;-65
2020/12/09 04:17:58;;;;;;;22.82;10.63;;;;;;;-4.70;71.10;100045.66;1630930;87;21252;-66
2020/12/09 04:20:26;;;;;;;22.07;10.35;;;;;;;-4.68;71.06;100058.02;1618281;87;21182;-66
2020/12/09 04:22:53;;;;;;;29.82;11.35;;;;;;;-4.66;71.04;100050.19;1637377;87;21190;-67
2020/12/09 04:25:22;;;;;;;25.35;12.05;;;;;;;-4.64;71.18;100046.18;1634114;86;21198;-65
2020/12/09 04:27:50;;;;;;;26.23;10.65;;;;;;;-4.64;71.18;100048.70;1628458;86;21228;-65
2020/12/09 04:30:18;;;;;;;29.52;12.15;;;;;;;-4.64;71.26;100055.00;1618221;87;21388;-66
2020/12/09 04:32:46;;;;;;;24.60;11.22;;;;;;;-4.66;71.45;100049.31;1640621;86;21206;-65
2020/12/09 04:35:14;;;;;;;26.55;10.72;;;;;;;-4.62;71.47;100050.11;1631259;87;21297;-66
2020/12/09 04:37:45;;;;;;;25.05;12.45;;;;;;;-4.63;71.55;100051.75;1622283;86;21181;-65
2020/12/09 04:40:13;;;;;;;29.02;12.18;;;;;;;-4.62;71.65;100043.81;1633605;87;21155;-66
2020/12/09 04:42:58;;;;;;;24.25;10.80;;;;;;;-4.60;71.69;100050.75;1620224;87;21604;-68
2020/12/09 04:45:28;;;;;;;29.92;12.13;;;;;;;-4.63;71.89;100051.75;1626800;87;21194;-65
2020/12/09 04:48:11;;;;;;;25.25;11.05;;;;;;;-4.68;72.20;100074.73;1639485;87;21189;-68
2020/12/09 04:51:31;;;;;;;23.90;12.28;;;;;;;-4.72;72.42;100069.81;1638757;87;21179;-66
2020/12/09 04:53:59;;;;;;;21.73;9.50;;;;;;;-4.77;72.71;100066.00;1631800;87;21604;-66
2020/12/09 04:56:37;;;;;;;25.85;10.32;;;;;;;-4.87;73.31;100060.90;1625006;86;21213;-66
2020/12/09 04:59:11;;;;;;;24.98;11.05;;;;;;;-4.91;73.62;100057.58;1624291;87;21529;-65
2020/12/09 05:01:54;;;;;;;24.52;11.33;;;;;;;-4.96;73.94;100055.03;1625904;87;21329;-67
2020/12/09 05:04:24;;;;;;;;;;;;;;;-4.95;74.21;100068.15;1634763;87;22052;-65
2020/12/09 05:06:54;;;;;;;33.00;12.30;;;;;;;-4.96;74.33;100063.84;1646550;86;20222;-65
2020/12/09 05:09:27;;;;;;;32.35;13.28;;;;;;;-4.90;74.54;100070.32;1637689;86;21174;-65
2020/12/09 05:12:04;;;;;;;24.25;12.03;;;;;;;-4.85;74.51;100070.73;1651990;87;21176;-65
2020/12/09 05:14:35;;;;;;;30.08;11.70;;;;;;;-4.86;74.69;100066.43;1640092;86;21201;-66
2020/12/09 05:17:04;;;;;;;;;;;;;;;-4.87;74.99;100063.03;1648422;86;21328;-66
2020/12/09 05:19:32;;;;;;;26.05;12.05;;;;;;;-4.87;75.09;100059.64;1640662;87;20155;-65
2020/12/09 05:22:02;;;;;;;31.65;12.58;;;;;;;-4.89;75.21;100056.97;1633689;86;21342;-66
2020/12/09 05:24:32;;;;;;;22.37;11.83;;;;;;;-4.84;75.30;100072.49;1627562;86;21138;-66
2020/12/09 05:27:04;;;;;;;23.07;12.18;;;;;;;-4.84;75.57;100067.45;1625873;87;21207;-66
2020/12/09 05:29:32;;;;;;;29.27;12.47;;;;;;;-4.82;75.57;100070.63;1639335;86;21203;-65
2020/12/09 05:32:02;;;;;;;26.80;11.40;;;;;;;-4.81;75.72;100071.16;1626542;87;21178;-66
2020/12/09 05:34:35;;;;;;;24.82;10.93;;;;;;;-4.74;75.75;100073.82;1624605;87;21186;-65
2020/12/09 05:37:10;;;;;;;27.90;11.80;;;;;;;-4.69;75.72;100069.20;1625126;87;21178;-66
2020/12/09 05:39:55;;;;;;;36.80;12.68;;;;;;;-4.66;75.83;100066.56;1628425;87;21706;-66
2020/12/09 05:42:24;;;;;;;25.85;11.65;;;;;;;-4.65;75.93;100073.39;1637402;87;21386;-66
2020/12/09 05:44:52;;;;;;;27.40;12.95;;;;;;;-4.67;76.23;100069.84;1637411;86;21185;-65
2020/12/09 05:47:21;;;;;;;31.05;14.98;;;;;;;-4.69;76.61;100079.27;1609176;86;22269;-65
2020/12/09 05:49:49;;;;;;;30.32;13.60;;;;;;;-4.69;76.76;100065.04;1618099;85;21149;-66
2020/12/09 05:52:22;;;;;;;30.27;14.15;;;;;;;-4.69;76.96;100062.52;1641115;86;21430;-66
2020/12/09 05:54:54;;;;;;;29.30;15.30;;;;;;;-4.68;77.05;100066.83;1649753;86;21379;-67
2020/12/09 05:57:26;;;;;;;30.88;14.40;;;;;;;-4.69;77.24;100066.30;1653526;86;21181;-67
2020/12/09 05:59:54;;;;;;;34.65;15.20;;;;;;;-4.69;77.39;100056.22;1654021;86;21593;-65
2020/12/09 06:02:28;;;;;;;29.35;13.83;;;;;;;-4.67;77.56;100067.33;1627721;87;21194;-67
2020/12/09 06:05:01;;;;;;;37.65;15.80;;;;;;;-4.71;77.70;100051.42;1626400;87;21226;-67
2020/12/09 06:07:32;;;;;;;28.42;12.43;;;;;;;-4.74;78.11;100061.61;1629028;88;21647;-67
2020/12/09 06:10:17;;;;;;;33.45;15.15;;;;;;;-4.77;78.46;100068.90;1628735;87;21807;-67
2020/12/09 06:15:38;;;;;;;30.15;14.03;;;;;;;-4.83;79.12;100060.05;1736707;82;21165;-67
2020/12/09 06:18:13;;;;;;;28.60;13.18;;;;;;;-4.86;79.49;100060.14;1737627;82;21144;-66
2020/12/09 06:20:43;;;;;;;36.00;11.38;;;;;;;-4.89;79.79;100092.59;1737306;81;21558;-67
2020/12/09 06:23:18;;;;;;;30.70;13.90;;;;;;;-4.92;80.19;100078.48;1752012;80;21135;-69
2020/12/09 06:25:47;;;;;;;36.17;15.83;;;;;;;-4.93;80.54;100066.66;1763501;81;21536;-70
2020/12/09 06:28:18;;;;;;;31.55;14.83;;;;;;;-4.87;80.66;100084.81;1763277;81;21316;-65
2020/12/09 06:30:48;;;;;;;38.08;13.32;;;;;;;-4.91;80.81;100071.43;1763352;81;21157;-66
2020/12/09 06:33:41;;;;;;;33.75;13.00;;;;;;;-4.92;81.12;100074.70;1763145;81;21157;-65
2020/12/09 06:36:28;;;;;;;46.15;14.53;;;;;;;-4.93;81.28;100066.66;1763244;81;21157;-67
2020/12/09 06:39:13;;;;;;;29.32;11.95;;;;;;;-4.93;81.48;100067.92;1763020;81;21157;-67
2020/12/09 06:41:56;;;;;;;28.40;12.70;;;;;;;-4.91;81.63;100077.72;1742491;81;21278;-67
2020/12/09 06:44:30;;;;;;;32.58;14.68;;;;;;;-4.93;82.02;100076.73;1763195;81;21291;-66
2020/12/09 06:46:59;;;;;;;28.60;12.70;;;;;;;-5.00;82.44;100074.02;1763365;81;21189;-65
2020/12/09 06:49:40;;;;;;;28.75;14.13;;;;;;;-5.00;82.71;100072.77;1763081;81;21161;-66
2020/12/09 06:52:23;;;;;;;32.80;14.00;;;;;;;-5.00;82.91;100065.59;1762742;81;21291;-66
2020/12/09 06:54:51;;;;;;;37.35;15.05;;;;;;;-4.91;83.01;100078.98;1713129;81;21288;-66
2020/12/09 06:57:33;;;;;;;34.13;14.30;;;;;;;-4.89;83.10;100076.23;1700303;83;21177;-63
2020/12/09 07:00:18;;;;;;;34.83;15.63;;;;;;;-4.86;83.26;100073.98;1728142;82;21309;-63
2020/12/09 07:02:49;;;;;;;35.43;15.05;;;;;;;-4.84;83.29;100084.70;1732287;81;21218;-63
2020/12/09 07:05:20;;;;;;;28.27;13.28;;;;;;;-4.82;83.50;100081.08;1737969;81;21188;-64
2020/12/09 07:07:52;;;;;;;31.48;15.60;;;;;;;-4.84;83.70;100086.34;1737673;81;21164;-64
2020/12/09 07:10:24;;;;;;;31.97;14.83;;;;;;;-4.86;84.18;100081.53;1737850;81;21318;-64
2020/12/09 07:13:06;;;;;;;;;;;;;;;-4.79;84.20;100093.93;1740381;81;21172;-63
2020/12/09 07:15:47;;;;;;;35.75;16.17;;;;;;;-4.75;84.22;100083.39;1756451;81;20419;-63
2020/12/09 07:18:15;;;;;;;29.92;13.80;;;;;;;-4.74;84.16;100075.08;1731316;83;21173;-63
2020/12/09 07:20:45;;;;;;;36.00;14.93;;;;;;;-4.77;84.30;100094.95;1731141;83;21332;-63
2020/12/09 07:23:13;;;;;;;32.58;16.10;;;;;;;-4.74;84.55;100086.41;1731357;83;21141;-64
2020/12/09 07:25:41;;;;;;;37.93;16.55;;;;;;;-4.74;84.58;100087.67;1749102;81;21298;-63
2020/12/09 07:28:09;;;;;;;34.55;15.68;;;;;;;-4.73;84.73;100091.06;1756372;81;21134;-63
2020/12/09 07:30:37;;;;;;;30.08;14.53;;;;;;;-4.74;84.89;100081.37;1756879;81;21102;-63
2020/12/09 07:33:04;;;;;;;33.33;14.20;;;;;;;-4.75;84.95;100087.17;1744810;81;21166;-63
2020/12/09 07:35:32;;;;;;;32.90;14.70;;;;;;;-4.73;85.17;100089.80;1748731;81;21105;-63
2020/12/09 07:38:00;;;;;;;40.50;18.25;;;;;;;-4.74;85.16;100071.69;1747378;81;21160;-63
2020/12/09 07:40:32;;;;;;;33.55;13.35;;;;;;;-4.67;85.33;100086.59;1746649;81;21125;-63
2020/12/09 07:43:10;;;;;;;40.10;16.00;;;;;;;-4.64;85.21;100077.66;1743245;81;21134;-63
2020/12/09 07:45:44;;;;;;;28.70;12.80;;;;;;;-4.57;85.19;100082.00;1744848;81;21126;-62
2020/12/09 07:48:16;;;;;;;33.73;15.83;;;;;;;-4.49;84.92;100091.11;1744399;81;21149;-62
2020/12/09 07:50:52;;;;;;;31.73;15.35;;;;;;;-4.49;84.66;100098.67;1745395;81;21206;-62
2020/12/09 07:53:20;;;;;;;47.17;16.65;;;;;;;-4.49;85.00;100097.41;1745364;81;21142;-63
2020/12/09 07:55:48;;;;;;;31.00;14.93;;;;;;;-4.53;85.09;100088.67;1745994;81;21299;-63
2020/12/09 07:58:18;;;;;;;38.48;14.98;;;;;;;-4.50;84.91;100122.07;1747060;81;21204;-63
2020/12/09 08:00:48;;;;;;;29.77;13.48;;;;;;;-4.47;85.16;100084.58;1747174;81;21189;-63
2020/12/09 08:03:24;;;;;;;30.70;14.18;;;;;;;-4.45;84.55;100095.30;1757694;81;21580;-63
2020/12/09 08:05:54;;;;;;;36.93;16.90;;;;;;;-4.41;84.87;100091.41;1754259;81;21292;-62
2020/12/09 08:08:25;;;;;;;32.20;15.58;;;;;;;-4.38;84.97;100106.78;1756308;81;21193;-62
2020/12/09 08:10:53;;;;;;;38.28;16.50;;;;;;;-4.33;84.69;100089.17;1755708;81;21315;-63
2020/12/09 08:13:28;;;;;;;36.83;14.75;;;;;;;-4.28;84.65;100095.88;1756549;81;21165;-63
2020/12/09 08:16:14;;;;;;;35.40;16.90;;;;;;;-4.21;84.29;100083.06;1760572;81;21153;-63
2020/12/09 08:18:43;;;;;;;49.88;21.05;;;;;;;-4.18;84.49;100087.11;1758874;81;21101;-63
2020/12/09 08:21:11;;;;;;;38.65;18.37;;;;;;;-4.16;84.65;100097.83;1757359;81;21165;-63
2020/12/09 08:23:43;;;;;;;43.42;20.08;;;;;;;-4.12;84.68;100088.92;1758466;81;21279;-63
2020/12/09 08:26:13;;;;;;;47.62;18.02;;;;;;;-4.03;84.71;100088.81;1756418;81;21134;-63
2020/12/09 08:28:47;;;;;;;36.35;16.02;;;;;;;-4.03;83.83;100087.55;1756257;81;21149;-63
2020/12/09 08:31:18;;;;;;;37.80;18.23;;;;;;;-3.98;84.16;100089.71;1755640;81;21141;-63
2020/12/09 08:33:46;;;;;;;35.58;17.17;;;;;;;-3.96;84.21;100080.65;1755486;81;21264;-63
2020/12/09 08:36:15;;;;;;;37.95;18.57;;;;;;;-3.91;84.37;100087.36;1755496;81;21125;-63
2020/12/09 08:38:50;;;;;;;42.95;18.45;;;;;;;-3.85;84.49;100084.47;1759129;81;21508;-63
2020/12/09 08:41:27;;;;;;;35.52;18.92;;;;;;;-3.83;83.82;100090.15;1757417;81;21154;-63
2020/12/09 08:43:58;;;;;;;41.85;18.42;;;;;;;-3.78;83.93;100092.69;1755878;81;21268;-63
2020/12/09 08:46:28;;;;;;;44.60;18.83;;;;;;;-3.80;83.34;100102.13;1757133;81;21161;-63
2020/12/09 08:48:57;;;;;;;41.50;19.95;;;;;;;-3.87;83.52;100095.67;1754652;81;21271;-63
2020/12/09 08:51:28;;;;;;;38.58;18.02;;;;;;;-3.94;83.64;100078.27;1757421;81;21175;-63
2020/12/09 08:53:58;;;;;;;37.28;17.87;;;;;;;-3.95;83.83;100084.05;1689855;85;21162;-64
2020/12/09 08:56:28;;;;;;;36.28;16.97;;;;;;;-3.87;84.03;100100.71;1755672;81;21707;-63
2020/12/09 08:58:57;;;;;;;38.33;18.35;;;;;;;-3.86;83.33;100083.97;1752252;81;21292;-62
2020/12/09 09:01:25;;;;;;;30.92;16.25;;;;;;;-3.93;83.42;100097.67;1758572;81;21152;-63
2020/12/09 09:06:30;;;;;;;35.48;16.70;;;;;;;-3.87;83.96;100085.58;1830619;77;22167;-62
2020/12/09 09:08:58;;;;;;;34.65;16.23;;;;;;;-3.93;83.58;100085.07;1793469;80;21142;-62
2020/12/09 09:11:30;;;;;;;31.48;15.63;;;;;;;-3.95;83.44;100103.84;1793496;78;21127;-62
2020/12/09 09:13:57;;;;;;;37.08;16.42;;;;;;;-4.00;83.28;100072.30;1793532;78;21142;-62
2020/12/09 09:16:25;;;;;;;38.58;18.82;;;;;;;-3.95;83.86;100069.80;1810535;78;21154;-62
2020/12/09 09:18:52;;;;;;;38.23;18.25;;;;;;;-3.88;83.97;100064.03;1793255;78;21149;-62
2020/12/09 09:21:20;;;;;;;31.48;15.40;;;;;;;-3.81;83.72;100068.86;1802476;78;21244;-62
2020/12/09 09:23:48;;;;;;;41.18;18.12;;;;;;;-3.80;83.37;100072.75;1798270;78;21150;-61
2020/12/09 09:26:17;;;;;;;32.63;15.60;;;;;;;-3.84;83.67;100078.30;1731198;81;21300;-62
2020/12/09 09:28:45;;;;;;;37.55;17.10;;;;;;;-3.86;83.70;100063.80;1727091;82;21126;-63
2020/12/09 09:31:13;;;;;;;29.42;13.75;;;;;;;-3.83;84.26;100063.67;1735041;80;21125;-60
2020/12/09 09:33:41;;;;;;;33.95;16.62;;;;;;;-3.81;83.72;100067.59;1766317;80;21131;-63
2020/12/09 09:36:08;;;;;;;35.25;16.65;;;;;;;-3.83;83.85;100063.67;1782006;80;21151;-61
2020/12/09 09:38:36;;;;;;;26.05;11.85;;;;;;;-3.81;83.44;100090.30;1751177;82;21154;-62
2020/12/09 09:41:04;;;;;;;34.00;15.65;;;;;;;-3.84;82.96;100076.13;1751717;81;21532;-62
2020/12/09 09:43:31;;;;;;;30.60;13.15;;;;;;;-3.83;83.02;100072.50;1736613;81;21305;-61
2020/12/09 09:46:00;;;;;;;23.18;11.48;;;;;;;-3.84;82.06;100080.83;1732720;82;21146;-60
2020/12/09 09:48:28;;;;;;;27.25;13.20;;;;;;;-3.87;82.06;100074.23;1732630;82;21150;-61
2020/12/09 09:50:56;;;;;;;28.07;13.15;;;;;;;-3.90;82.17;100081.55;1732449;81;21412;-61
2020/12/09 09:53:23;;;;;;;25.45;12.65;;;;;;;-3.92;82.17;100078.00;1745388;81;21297;-61
2020/12/09 09:55:51;;;;;;;28.90;13.35;;;;;;;-3.96;82.31;100084.44;1708976;81;21169;-62
2020/12/09 09:58:18;;;;;;;25.08;14.18;;;;;;;-3.95;82.66;100072.70;1732767;81;21688;-61
2020/12/09 10:00:46;;;;;;;26.68;13.13;;;;;;;-3.92;82.73;100066.66;1732490;81;21131;-62
2020/12/09 10:03:14;;;;;;;30.80;13.15;;;;;;;-3.93;82.18;100088.85;1732354;83;21151;-61
2020/12/09 10:05:42;;;;;;;31.07;12.90;;;;;;;-3.96;82.17;100072.20;1722704;82;21139;-61
2020/12/09 10:08:09;;;;;;;26.73;12.90;;;;;;;-3.94;82.04;100071.59;1738313;82;21178;-62
2020/12/09 10:10:37;;;;;;;31.82;14.80;;;;;;;-3.95;82.08;100087.45;1811737;79;21296;-62
2020/12/09 10:13:05;;;;;;;29.05;14.28;;;;;;;-3.92;82.37;100059.09;1811943;79;21269;-61
2020/12/09 10:15:32;;;;;;;26.27;13.40;;;;;;;-3.85;82.26;100062.65;1811685;79;21103;-61
2020/12/09 10:18:00;;;;;;;34.08;15.45;;;;;;;-3.78;82.36;100066.20;1742274;82;21285;-61
2020/12/09 10:20:28;;;;;;;30.37;14.95;;;;;;;-3.73;82.24;100071.27;1811130;79;21296;-61
2020/12/09 10:22:55;;;;;;;34.23;16.48;;;;;;;-3.72;81.86;100094.45;1811079;79;21588;-61
2020/12/09 10:25:24;;;;;;;35.83;15.38;;;;;;;-3.69;81.97;100056.38;1740058;82;21188;-61
2020/12/09 10:27:52;;;;;;;33.20;15.90;;;;;;;-3.67;81.72;100058.27;1787622;79;21123;-62
2020/12/09 10:30:19;;;;;;;29.75;13.80;;;;;;;-3.66;81.87;100060.41;1713639;82;21150;-62
2020/12/09 10:32:47;;;;;;;32.48;16.37;;;;;;;-3.67;82.08;100053.61;1789451;79;21269;-56
2020/12/09 10:35:16;;;;;;;33.00;15.80;;;;;;;-3.68;82.25;100049.34;1788066;79;21241;-56
2020/12/09 10:37:44;;;;;;;34.13;14.73;;;;;;;-3.65;81.88;100058.03;1779424;81;21150;-58
2020/12/09 10:40:12;;;;;;;31.90;14.05;;;;;;;-3.65;81.66;100055.90;1779448;80;21296;-60
2020/12/09 10:42:40;;;;;;;29.20;14.55;;;;;;;-3.67;81.39;100053.23;1779662;79;21150;-57
2020/12/09 10:45:08;;;;;;;29.98;15.28;;;;;;;-3.65;81.48;100058.42;1779353;79;21150;-60
2020/12/09 10:47:36;;;;;;;33.55;13.43;;;;;;;-3.78;81.78;100064.06;1779273;80;21150;-58
2020/12/09 10:50:04;;;;;;;35.50;15.40;;;;;;;-3.84;82.18;100059.39;1779284;81;21154;-64
2020/12/09 10:52:32;;;;;;;29.75;14.35;;;;;;;-3.84;82.48;100050.56;1779207;80;21178;-64
2020/12/09 10:55:00;;;;;;;27.30;13.15;;;;;;;-3.82;82.39;100040.59;1779219;80;21123;-65
2020/12/09 10:57:28;;;;;;;33.13;14.78;;;;;;;-3.86;82.63;100058.75;1779529;80;21281;-63
2020/12/09 10:59:56;;;;;;;36.75;15.58;;;;;;;-3.89;82.86;100053.42;1779248;79;21147;-66
2020/12/09 11:02:23;;;;;;;31.20;14.33;;;;;;;-3.86;83.09;100043.24;1779473;81;21139;-64
2020/12/09 11:04:51;;;;;;;35.23;14.80;;;;;;;-3.83;83.10;100051.44;1779174;80;21309;-64
2020/12/09 11:07:21;;;;;;;35.03;16.80;;;;;;;-3.82;83.22;100046.52;1779230;81;21143;-64
2020/12/09 11:09:49;;;;;;;40.65;16.23;;;;;;;-3.83;83.26;100046.40;1779244;81;21268;-64
2020/12/09 11:12:18;;;;;;;40.88;18.57;;;;;;;-3.76;83.29;100043.27;1779546;80;21158;-64
2020/12/09 11:14:49;;;;;;;40.35;19.25;;;;;;;-3.73;83.13;100038.47;1779448;79;21123;-64
2020/12/09 11:17:17;;;;;;;35.25;18.23;;;;;;;-3.68;83.16;100040.13;1779423;79;21143;-64
2020/12/09 11:19:45;;;;;;;44.33;18.17;;;;;;;-3.59;83.01;100043.40;1779201;81;21147;-64
2020/12/09 11:22:13;;;;;;;43.50;19.20;;;;;;;-3.55;82.63;100044.17;1779235;81;21135;-64
2020/12/09 11:24:41;;;;;;;43.08;18.92;;;;;;;-3.55;82.82;100046.70;1779178;79;21317;-64
2020/12/09 11:27:09;;;;;;;42.25;18.12;;;;;;;-3.53;82.78;100046.84;1779445;81;21143;-64